sensor_id;sensor_type;location;lat;lon;timestamp;temperature;humidity
51021;DHT22;38907;45.562;8.856;2023-03-31T00:00:01;11.80;99.90
51021;DHT22;38907;45.562;8.856;2023-03-31T00:05:05;11.80;99.90
51021;DHT22;38907;45.562;8.856;2023-03-31T00:10:08;11.70;99.90
51021;DHT22;38907;45.562;8.856;2023-03-31T00:15:10;11.50;99.90
51021;DHT22;38907;45.562;8.856;2023-03-31T00:20:14;11.50;99.90
51021;DHT22;38907;45.562;8.856;2023-03-31T00:25:16;11.40;99.90
51021;DHT22;38907;45.562;8.856;2023-03-31T00:30:18;11.30;99.90
51021;DHT22;38907;45.562;8.856;2023-03-31T00:35:22;11.50;99.90
51021;DHT22;38907;45.562;8.856;2023-03-31T00:40:24;11.40;99.90
51021;DHT22;38907;45.562;8.856;2023-03-31T00:45:27;11.40;99.90
51021;DHT22;38907;45.562;8.856;2023-03-31T00:50:34;11.30;99.90
51021;DHT22;38907;45.562;8.856;2023-03-31T00:55:39;11.20;99.90
51021;DHT22;38907;45.562;8.856;2023-03-31T01:00:42;11.20;99.90
51021;DHT22;38907;45.562;8.856;2023-03-31T01:05:48;11.30;99.90
51021;DHT22;38907;45.562;8.856;2023-03-31T01:10:53;11.00;99.90
51021;DHT22;38907;45.562;8.856;2023-03-31T01:15:55;11.00;99.90
51021;DHT22;38907;45.562;8.856;2023-03-31T01:21:23;11.00;99.90
51021;DHT22;38907;45.562;8.856;2023-03-31T01:26:42;11.00;99.90
51021;DHT22;38907;45.562;8.856;2023-03-31T01:42:52;11.00;99.90
51021;DHT22;38907;45.562;8.856;2023-03-31T01:48:00;11.30;99.90
51021;DHT22;38907;45.562;8.856;2023-03-31T01:53:06;10.80;99.90
51021;DHT22;38907;45.562;8.856;2023-03-31T01:58:17;10.30;99.90
51021;DHT22;38907;45.562;8.856;2023-03-31T02:03:23;10.30;99.90
51021;DHT22;38907;45.562;8.856;2023-03-31T02:08:30;10.60;99.90
51021;DHT22;38907;45.562;8.856;2023-03-31T02:13:38;10.80;99.90
51021;DHT22;38907;45.562;8.856;2023-03-31T02:18:45;10.70;99.90
51021;DHT22;38907;45.562;8.856;2023-03-31T02:23:50;10.70;99.90
51021;DHT22;38907;45.562;8.856;2023-03-31T02:28:54;10.90;99.90
51021;DHT22;38907;45.562;8.856;2023-03-31T02:33:55;11.10;99.90
51021;DHT22;38907;45.562;8.856;2023-03-31T02:39:01;11.10;99.90
51021;DHT22;38907;45.562;8.856;2023-03-31T02:44:05;11.10;99.90
51021;DHT22;38907;45.562;8.856;2023-03-31T02:49:07;11.00;99.90
51021;DHT22;38907;45.562;8.856;2023-03-31T02:54:27;11.20;99.90
51021;DHT22;38907;45.562;8.856;2023-03-31T02:59:41;11.20;99.90
51021;DHT22;38907;45.562;8.856;2023-03-31T03:05:02;11.30;99.90
51021;DHT22;38907;45.562;8.856;2023-03-31T03:10:08;11.00;99.90
51021;DHT22;38907;45.562;8.856;2023-03-31T03:15:13;11.20;99.90
51021;DHT22;38907;45.562;8.856;2023-03-31T03:20:19;11.30;99.90
51021;DHT22;38907;45.562;8.856;2023-03-31T03:25:21;11.30;99.90
51021;DHT22;38907;45.562;8.856;2023-03-31T03:30:25;11.30;99.90
51021;DHT22;38907;45.562;8.856;2023-03-31T03:35:27;11.50;99.90
51021;DHT22;38907;45.562;8.856;2023-03-31T03:40:28;11.40;99.90
51021;DHT22;38907;45.562;8.856;2023-03-31T03:45:32;11.00;99.90
51021;DHT22;38907;45.562;8.856;2023-03-31T03:50:35;10.90;99.90
51021;DHT22;38907;45.562;8.856;2023-03-31T03:55:38;11.20;99.90
51021;DHT22;38907;45.562;8.856;2023-03-31T04:00:41;11.30;99.90
51021;DHT22;38907;45.562;8.856;2023-03-31T04:05:46;11.30;99.90
51021;DHT22;38907;45.562;8.856;2023-03-31T04:10:49;11.30;99.90
51021;DHT22;38907;45.562;8.856;2023-03-31T04:15:53;11.40;99.90
51021;DHT22;38907;45.562;8.856;2023-03-31T04:20:54;11.40;99.90
51021;DHT22;38907;45.562;8.856;2023-03-31T04:26:04;11.50;99.90
51021;DHT22;38907;45.562;8.856;2023-03-31T04:31:10;11.50;99.90
51021;DHT22;38907;45.562;8.856;2023-03-31T04:36:15;11.50;99.90
51021;DHT22;38907;45.562;8.856;2023-03-31T04:41:18;11.60;99.90
51021;DHT22;38907;45.562;8.856;2023-03-31T04:46:21;11.50;99.90
51021;DHT22;38907;45.562;8.856;2023-03-31T04:51:23;11.60;99.90
51021;DHT22;38907;45.562;8.856;2023-03-31T04:56:25;11.50;99.90
51021;DHT22;38907;45.562;8.856;2023-03-31T05:01:28;11.60;99.90
51021;DHT22;38907;45.562;8.856;2023-03-31T05:06:33;11.60;99.90
51021;DHT22;38907;45.562;8.856;2023-03-31T05:11:35;11.60;99.90
51021;DHT22;38907;45.562;8.856;2023-03-31T05:16:39;11.60;99.90
51021;DHT22;38907;45.562;8.856;2023-03-31T05:21:41;11.70;99.90
51021;DHT22;38907;45.562;8.856;2023-03-31T05:26:43;11.60;99.90
51021;DHT22;38907;45.562;8.856;2023-03-31T05:31:51;11.70;99.90
51021;DHT22;38907;45.562;8.856;2023-03-31T05:36:53;11.60;99.90
51021;DHT22;38907;45.562;8.856;2023-03-31T05:41:55;11.70;99.90
51021;DHT22;38907;45.562;8.856;2023-03-31T05:46:58;11.50;99.90
51021;DHT22;38907;45.562;8.856;2023-03-31T05:52:00;11.40;99.90
51021;DHT22;38907;45.562;8.856;2023-03-31T05:57:03;11.70;99.90
51021;DHT22;38907;45.562;8.856;2023-03-31T06:02:06;11.60;99.90
51021;DHT22;38907;45.562;8.856;2023-03-31T06:07:08;11.50;99.90
51021;DHT22;38907;45.562;8.856;2023-03-31T06:12:10;11.80;99.90
51021;DHT22;38907;45.562;8.856;2023-03-31T06:17:13;11.80;99.90
51021;DHT22;38907;45.562;8.856;2023-03-31T06:22:15;12.00;99.90
51021;DHT22;38907;45.562;8.856;2023-03-31T06:27:17;12.00;99.90
51021;DHT22;38907;45.562;8.856;2023-03-31T06:32:20;12.10;99.90
51021;DHT22;38907;45.562;8.856;2023-03-31T06:37:22;12.10;99.90
51021;DHT22;38907;45.562;8.856;2023-03-31T06:42:24;12.10;99.90
51021;DHT22;38907;45.562;8.856;2023-03-31T06:47:27;12.20;99.90
51021;DHT22;38907;45.562;8.856;2023-03-31T06:52:30;12.20;99.90
51021;DHT22;38907;45.562;8.856;2023-03-31T06:57:32;12.40;99.90
51021;DHT22;38907;45.562;8.856;2023-03-31T07:02:35;12.50;99.90
51021;DHT22;38907;45.562;8.856;2023-03-31T07:07:37;12.60;99.90
51021;DHT22;38907;45.562;8.856;2023-03-31T07:12:39;12.50;99.90
51021;DHT22;38907;45.562;8.856;2023-03-31T07:17:42;12.50;99.90
51021;DHT22;38907;45.562;8.856;2023-03-31T07:22:45;12.70;99.90
51021;DHT22;38907;45.562;8.856;2023-03-31T07:27:47;12.80;99.90
51021;DHT22;38907;45.562;8.856;2023-03-31T07:32:51;12.90;99.90
51021;DHT22;38907;45.562;8.856;2023-03-31T07:37:54;12.80;99.90
51021;DHT22;38907;45.562;8.856;2023-03-31T07:42:55;13.00;99.90
51021;DHT22;38907;45.562;8.856;2023-03-31T07:47:59;13.00;99.90
51021;DHT22;38907;45.562;8.856;2023-03-31T07:53:01;13.00;99.90
51021;DHT22;38907;45.562;8.856;2023-03-31T07:58:03;13.10;99.90
51021;DHT22;38907;45.562;8.856;2023-03-31T08:03:06;13.40;99.90
51021;DHT22;38907;45.562;8.856;2023-03-31T08:08:08;13.40;99.90
51021;DHT22;38907;45.562;8.856;2023-03-31T08:13:10;13.50;99.90
51021;DHT22;38907;45.562;8.856;2023-03-31T08:18:13;13.60;99.90
51021;DHT22;38907;45.562;8.856;2023-03-31T08:23:15;13.80;99.90
51021;DHT22;38907;45.562;8.856;2023-03-31T08:28:17;13.70;99.90
51021;DHT22;38907;45.562;8.856;2023-03-31T08:33:20;13.70;99.90
51021;DHT22;38907;45.562;8.856;2023-03-31T08:38:22;13.70;99.90
51021;DHT22;38907;45.562;8.856;2023-03-31T08:43:27;13.80;99.90
51021;DHT22;38907;45.562;8.856;2023-03-31T08:48:35;13.90;99.90
51021;DHT22;38907;45.562;8.856;2023-03-31T08:53:46;13.90;99.90
51021;DHT22;38907;45.562;8.856;2023-03-31T08:58:51;13.90;99.90
51021;DHT22;38907;45.562;8.856;2023-03-31T09:04:15;14.00;99.90
51021;DHT22;38907;45.562;8.856;2023-03-31T09:09:27;14.00;99.90
51021;DHT22;38907;45.562;8.856;2023-03-31T09:14:35;14.00;99.90
51021;DHT22;38907;45.562;8.856;2023-03-31T09:19:43;14.10;99.90
51021;DHT22;38907;45.562;8.856;2023-03-31T09:24:54;14.00;99.90
51021;DHT22;38907;45.562;8.856;2023-03-31T09:30:00;13.90;99.90
51021;DHT22;38907;45.562;8.856;2023-03-31T09:35:15;13.90;99.90
51021;DHT22;38907;45.562;8.856;2023-03-31T09:40:20;13.90;99.90
51021;DHT22;38907;45.562;8.856;2023-03-31T09:45:22;14.10;99.90
51021;DHT22;38907;45.562;8.856;2023-03-31T09:50:25;14.20;99.90
51021;DHT22;38907;45.562;8.856;2023-03-31T09:55:33;14.10;99.90
51021;DHT22;38907;45.562;8.856;2023-03-31T10:00:39;13.80;99.90
51021;DHT22;38907;45.562;8.856;2023-03-31T10:05:50;13.80;99.90
51021;DHT22;38907;45.562;8.856;2023-03-31T10:10:54;14.10;99.90
51021;DHT22;38907;45.562;8.856;2023-03-31T10:16:02;14.40;99.90
51021;DHT22;38907;45.562;8.856;2023-03-31T10:21:13;14.60;99.90
51021;DHT22;38907;45.562;8.856;2023-03-31T10:26:18;14.60;99.90
51021;DHT22;38907;45.562;8.856;2023-03-31T10:31:25;14.40;99.90
51021;DHT22;38907;45.562;8.856;2023-03-31T10:36:28;14.20;99.90
51021;DHT22;38907;45.562;8.856;2023-03-31T10:41:31;14.30;99.90
51021;DHT22;38907;45.562;8.856;2023-03-31T10:46:41;14.30;99.90
51021;DHT22;38907;45.562;8.856;2023-03-31T10:51:51;14.40;99.90
51021;DHT22;38907;45.562;8.856;2023-03-31T10:56:55;14.20;99.90
51021;DHT22;38907;45.562;8.856;2023-03-31T11:02:09;14.10;99.90
51021;DHT22;38907;45.562;8.856;2023-03-31T11:12:41;14.00;99.90
51021;DHT22;38907;45.562;8.856;2023-03-31T11:23:27;14.10;99.90
51021;DHT22;38907;45.562;8.856;2023-03-31T11:28:41;14.20;99.90
51021;DHT22;38907;45.562;8.856;2023-03-31T11:34:00;14.30;99.90
51021;DHT22;38907;45.562;8.856;2023-03-31T11:39:18;14.30;99.90
51021;DHT22;38907;45.562;8.856;2023-03-31T11:44:27;14.40;99.90
51021;DHT22;38907;45.562;8.856;2023-03-31T11:49:33;14.50;99.90
51021;DHT22;38907;45.562;8.856;2023-03-31T11:54:42;14.60;99.90
51021;DHT22;38907;45.562;8.856;2023-03-31T11:59:52;14.50;99.90
51021;DHT22;38907;45.562;8.856;2023-03-31T12:04:55;14.70;99.90
51021;DHT22;38907;45.562;8.856;2023-03-31T12:10:10;14.50;99.90
51021;DHT22;38907;45.562;8.856;2023-03-31T12:15:19;14.50;99.90
51021;DHT22;38907;45.562;8.856;2023-03-31T12:20:28;14.50;99.90
51021;DHT22;38907;45.562;8.856;2023-03-31T12:25:41;14.50;99.90
51021;DHT22;38907;45.562;8.856;2023-03-31T12:30:46;14.50;99.90
51021;DHT22;38907;45.562;8.856;2023-03-31T12:36:08;14.60;99.90
51021;DHT22;38907;45.562;8.856;2023-03-31T12:41:18;14.60;99.90
51021;DHT22;38907;45.562;8.856;2023-03-31T12:46:37;14.60;99.90
51021;DHT22;38907;45.562;8.856;2023-03-31T12:51:54;14.50;99.90
51021;DHT22;38907;45.562;8.856;2023-03-31T12:57:12;14.40;99.90
51021;DHT22;38907;45.562;8.856;2023-03-31T13:02:22;14.30;99.90
51021;DHT22;38907;45.562;8.856;2023-03-31T13:07:39;14.30;99.90
51021;DHT22;38907;45.562;8.856;2023-03-31T13:13:02;14.20;99.90
51021;DHT22;38907;45.562;8.856;2023-03-31T13:18:05;14.20;99.90
51021;DHT22;38907;45.562;8.856;2023-03-31T13:23:14;14.20;99.90
51021;DHT22;38907;45.562;8.856;2023-03-31T13:28:25;14.20;99.90
51021;DHT22;38907;45.562;8.856;2023-03-31T13:33:34;14.30;99.90
51021;DHT22;38907;45.562;8.856;2023-03-31T13:38:45;14.30;99.90
51021;DHT22;38907;45.562;8.856;2023-03-31T13:49:39;14.40;99.90
51021;DHT22;38907;45.562;8.856;2023-03-31T13:55:11;14.50;99.90
51021;DHT22;38907;45.562;8.856;2023-03-31T14:00:25;14.80;99.90
51021;DHT22;38907;45.562;8.856;2023-03-31T14:05:33;14.70;99.90
51021;DHT22;38907;45.562;8.856;2023-03-31T14:10:40;14.60;99.90
51021;DHT22;38907;45.562;8.856;2023-03-31T14:15:46;14.50;99.90
51021;DHT22;38907;45.562;8.856;2023-03-31T14:20:55;14.40;99.90
51021;DHT22;38907;45.562;8.856;2023-03-31T14:26:04;14.50;99.90
51021;DHT22;38907;45.562;8.856;2023-03-31T14:31:13;14.60;99.90
51021;DHT22;38907;45.562;8.856;2023-03-31T14:36:25;14.50;99.90
51021;DHT22;38907;45.562;8.856;2023-03-31T14:41:29;14.40;99.90
51021;DHT22;38907;45.562;8.856;2023-03-31T14:46:36;14.10;99.90
51021;DHT22;38907;45.562;8.856;2023-03-31T14:51:42;14.10;99.90
51021;DHT22;38907;45.562;8.856;2023-03-31T14:56:46;14.20;99.90
51021;DHT22;38907;45.562;8.856;2023-03-31T15:01:51;14.20;99.90
51021;DHT22;38907;45.562;8.856;2023-03-31T15:06:53;14.20;99.90
51021;DHT22;38907;45.562;8.856;2023-03-31T15:11:57;14.30;99.90
51021;DHT22;38907;45.562;8.856;2023-03-31T15:17:01;14.10;99.90
51021;DHT22;38907;45.562;8.856;2023-03-31T15:22:10;13.90;99.90
51021;DHT22;38907;45.562;8.856;2023-03-31T15:27:16;14.10;99.90
51021;DHT22;38907;45.562;8.856;2023-03-31T15:32:23;13.70;99.90
51021;DHT22;38907;45.562;8.856;2023-03-31T15:37:28;13.60;99.90
51021;DHT22;38907;45.562;8.856;2023-03-31T15:42:32;13.40;99.90
51021;DHT22;38907;45.562;8.856;2023-03-31T15:47:35;13.20;99.90
51021;DHT22;38907;45.562;8.856;2023-03-31T15:52:46;13.30;99.90
51021;DHT22;38907;45.562;8.856;2023-03-31T15:57:48;13.20;99.90
51021;DHT22;38907;45.562;8.856;2023-03-31T16:02:51;13.50;99.90
51021;DHT22;38907;45.562;8.856;2023-03-31T16:07:54;13.50;99.90
51021;DHT22;38907;45.562;8.856;2023-03-31T16:12:58;13.50;99.90
51021;DHT22;38907;45.562;8.856;2023-03-31T16:18:05;13.50;99.90
51021;DHT22;38907;45.562;8.856;2023-03-31T16:23:14;13.50;99.90
51021;DHT22;38907;45.562;8.856;2023-03-31T16:28:18;13.50;99.90
51021;DHT22;38907;45.562;8.856;2023-03-31T16:33:22;13.50;99.90
51021;DHT22;38907;45.562;8.856;2023-03-31T16:38:26;13.40;99.90
51021;DHT22;38907;45.562;8.856;2023-03-31T16:43:29;13.40;99.90
51021;DHT22;38907;45.562;8.856;2023-03-31T16:48:34;13.40;99.90
51021;DHT22;38907;45.562;8.856;2023-03-31T16:53:36;13.40;99.90
51021;DHT22;38907;45.562;8.856;2023-03-31T16:58:39;13.40;99.90
51021;DHT22;38907;45.562;8.856;2023-03-31T17:03:43;13.50;99.90
51021;DHT22;38907;45.562;8.856;2023-03-31T17:08:45;13.60;99.90
51021;DHT22;38907;45.562;8.856;2023-03-31T17:13:47;13.50;99.90
51021;DHT22;38907;45.562;8.856;2023-03-31T17:18:51;13.40;99.90
51021;DHT22;38907;45.562;8.856;2023-03-31T17:23:53;13.40;99.90
51021;DHT22;38907;45.562;8.856;2023-03-31T17:28:55;13.30;99.90
51021;DHT22;38907;45.562;8.856;2023-03-31T17:33:58;13.30;99.90
51021;DHT22;38907;45.562;8.856;2023-03-31T17:39:01;13.30;99.90
51021;DHT22;38907;45.562;8.856;2023-03-31T17:44:04;13.30;99.90
51021;DHT22;38907;45.562;8.856;2023-03-31T17:49:09;13.30;99.90
51021;DHT22;38907;45.562;8.856;2023-03-31T17:54:11;13.30;99.90
51021;DHT22;38907;45.562;8.856;2023-03-31T17:59:13;13.30;99.90
51021;DHT22;38907;45.562;8.856;2023-03-31T18:04:16;13.30;99.90
51021;DHT22;38907;45.562;8.856;2023-03-31T18:09:18;13.20;99.90
51021;DHT22;38907;45.562;8.856;2023-03-31T18:14:20;13.40;99.90
51021;DHT22;38907;45.562;8.856;2023-03-31T18:19:23;13.40;99.90
51021;DHT22;38907;45.562;8.856;2023-03-31T18:24:25;13.30;99.90
51021;DHT22;38907;45.562;8.856;2023-03-31T18:29:27;13.20;99.90
51021;DHT22;38907;45.562;8.856;2023-03-31T18:34:33;13.20;99.90
51021;DHT22;38907;45.562;8.856;2023-03-31T18:39:36;13.30;99.90
51021;DHT22;38907;45.562;8.856;2023-03-31T18:44:38;13.20;99.90
51021;DHT22;38907;45.562;8.856;2023-03-31T18:49:41;13.10;99.90
51021;DHT22;38907;45.562;8.856;2023-03-31T18:54:43;13.10;99.90
51021;DHT22;38907;45.562;8.856;2023-03-31T18:59:45;13.10;99.90
51021;DHT22;38907;45.562;8.856;2023-03-31T19:04:51;13.10;99.90
51021;DHT22;38907;45.562;8.856;2023-03-31T19:09:54;12.90;99.90
51021;DHT22;38907;45.562;8.856;2023-03-31T19:14:56;12.70;99.90
51021;DHT22;38907;45.562;8.856;2023-03-31T19:19:59;12.30;99.90
51021;DHT22;38907;45.562;8.856;2023-03-31T19:25:01;12.30;99.90
51021;DHT22;38907;45.562;8.856;2023-03-31T19:30:04;12.00;99.90
51021;DHT22;38907;45.562;8.856;2023-03-31T19:35:07;12.20;99.90
51021;DHT22;38907;45.562;8.856;2023-03-31T19:40:10;12.20;99.90
51021;DHT22;38907;45.562;8.856;2023-03-31T19:45:12;12.20;99.90
51021;DHT22;38907;45.562;8.856;2023-03-31T19:50:15;12.40;99.90
51021;DHT22;38907;45.562;8.856;2023-03-31T19:55:17;12.30;99.90
51021;DHT22;38907;45.562;8.856;2023-03-31T20:00:19;12.20;99.90
51021;DHT22;38907;45.562;8.856;2023-03-31T20:05:23;12.20;99.90
51021;DHT22;38907;45.562;8.856;2023-03-31T20:10:25;12.20;99.90
51021;DHT22;38907;45.562;8.856;2023-03-31T20:15:26;12.00;99.90
51021;DHT22;38907;45.562;8.856;2023-03-31T20:20:30;11.70;99.90
51021;DHT22;38907;45.562;8.856;2023-03-31T20:25:34;11.50;99.90
51021;DHT22;38907;45.562;8.856;2023-03-31T20:30:37;11.60;99.90
51021;DHT22;38907;45.562;8.856;2023-03-31T20:35:40;11.50;99.90
51021;DHT22;38907;45.562;8.856;2023-03-31T20:40:43;11.20;99.90
51021;DHT22;38907;45.562;8.856;2023-03-31T20:45:51;11.10;99.90
51021;DHT22;38907;45.562;8.856;2023-03-31T20:50:55;10.90;99.90
51021;DHT22;38907;45.562;8.856;2023-03-31T20:55:57;11.10;99.90
51021;DHT22;38907;45.562;8.856;2023-03-31T21:00:59;11.10;99.90
51021;DHT22;38907;45.562;8.856;2023-03-31T21:06:03;11.00;99.90
51021;DHT22;38907;45.562;8.856;2023-03-31T21:11:06;10.10;99.90
51021;DHT22;38907;45.562;8.856;2023-03-31T21:16:08;10.20;99.90
51021;DHT22;38907;45.562;8.856;2023-03-31T21:21:13;10.00;99.90
51021;DHT22;38907;45.562;8.856;2023-03-31T21:26:15;10.00;99.90
51021;DHT22;38907;45.562;8.856;2023-03-31T21:31:18;10.30;99.90
51021;DHT22;38907;45.562;8.856;2023-03-31T21:36:24;10.50;99.90
51021;DHT22;38907;45.562;8.856;2023-03-31T21:41:28;10.50;99.90
51021;DHT22;38907;45.562;8.856;2023-03-31T21:46:31;10.30;99.90
51021;DHT22;38907;45.562;8.856;2023-03-31T21:51:34;10.40;99.90
51021;DHT22;38907;45.562;8.856;2023-03-31T21:56:36;10.50;99.90
51021;DHT22;38907;45.562;8.856;2023-03-31T22:01:38;10.40;99.90
51021;DHT22;38907;45.562;8.856;2023-03-31T22:06:42;10.50;99.90
51021;DHT22;38907;45.562;8.856;2023-03-31T22:11:44;10.60;99.90
51021;DHT22;38907;45.562;8.856;2023-03-31T22:16:46;10.60;99.90
51021;DHT22;38907;45.562;8.856;2023-03-31T22:21:49;10.60;99.90
51021;DHT22;38907;45.562;8.856;2023-03-31T22:26:51;10.60;99.90
51021;DHT22;38907;45.562;8.856;2023-03-31T22:31:53;10.20;99.90
51021;DHT22;38907;45.562;8.856;2023-03-31T22:36:56;9.70;99.90
51021;DHT22;38907;45.562;8.856;2023-03-31T22:41:58;10.10;99.90
51021;DHT22;38907;45.562;8.856;2023-03-31T22:47:00;9.90;99.90
51021;DHT22;38907;45.562;8.856;2023-03-31T22:52:03;10.00;99.90
51021;DHT22;38907;45.562;8.856;2023-03-31T22:57:06;9.90;99.90
51021;DHT22;38907;45.562;8.856;2023-03-31T23:02:08;10.00;99.90
51021;DHT22;38907;45.562;8.856;2023-03-31T23:07:11;9.90;99.90
51021;DHT22;38907;45.562;8.856;2023-03-31T23:12:15;9.60;99.90
51021;DHT22;38907;45.562;8.856;2023-03-31T23:17:17;9.30;99.90
51021;DHT22;38907;45.562;8.856;2023-03-31T23:22:20;9.40;99.90
51021;DHT22;38907;45.562;8.856;2023-03-31T23:27:24;9.40;99.90
51021;DHT22;38907;45.562;8.856;2023-03-31T23:32:26;9.40;99.90
51021;DHT22;38907;45.562;8.856;2023-03-31T23:37:29;9.60;99.90
51021;DHT22;38907;45.562;8.856;2023-03-31T23:42:31;9.50;99.90
51021;DHT22;38907;45.562;8.856;2023-03-31T23:47:33;9.50;99.90
51021;DHT22;38907;45.562;8.856;2023-03-31T23:52:41;9.00;99.90
51021;DHT22;38907;45.562;8.856;2023-03-31T23:57:43;9.30;99.90
